Mc Kenzie Bridge, Oregon
Current Conditions -  °F | °C
As of 10:35 PM on Thursday 30 Oct 2014 (Local Time) from KBDN Reporting Station
Overcast Overcast  
Wind Chill: 46°   Ceiling: 300
Heat Index: 48°   Visibility: NA
Dew Point: 46°   Wind: 6mph
Humidity: 93%   Direction: 350°N
Pressure: 29.84"   Gusts: NA
Location:  44.2049°N, 122.069°W
Report Text: KBDN 310535Z AUTO 35005KT OVC003 09/08 A2984 RMK AO2
Loading
Personal Weather Stations






























Interactive Weather Map
Tropical Storm Tracking
New forecast layout! Learn more

10-Day Weather Forecast

Advertisements
Track Severe Weather on mobile